sensor_id;sensor_type;location;lat;lon;timestamp;temperature;humidity
24426;DHT22;12611;44.446;26.000;2024-02-15T00:01:28;10.70;75.50
24426;DHT22;12611;44.446;26.000;2024-02-15T00:03:58;10.60;75.50
24426;DHT22;12611;44.446;26.000;2024-02-15T00:06:27;10.70;75.50
24426;DHT22;12611;44.446;26.000;2024-02-15T00:08:55;10.60;75.50
24426;DHT22;12611;44.446;26.000;2024-02-15T00:11:24;10.60;75.50
24426;DHT22;12611;44.446;26.000;2024-02-15T00:13:53;10.60;75.60
24426;DHT22;12611;44.446;26.000;2024-02-15T00:16:23;10.50;75.60
24426;DHT22;12611;44.446;26.000;2024-02-15T00:18:52;10.50;75.60
24426;DHT22;12611;44.446;26.000;2024-02-15T00:21:24;10.50;75.60
24426;DHT22;12611;44.446;26.000;2024-02-15T00:23:52;10.50;75.70
24426;DHT22;12611;44.446;26.000;2024-02-15T00:26:23;10.50;75.70
24426;DHT22;12611;44.446;26.000;2024-02-15T00:28:51;10.40;75.70
24426;DHT22;12611;44.446;26.000;2024-02-15T00:31:20;10.40;75.70
24426;DHT22;12611;44.446;26.000;2024-02-15T00:33:49;10.40;75.80
24426;DHT22;12611;44.446;26.000;2024-02-15T00:36:18;10.30;75.80
24426;DHT22;12611;44.446;26.000;2024-02-15T00:38:48;10.30;75.80
24426;DHT22;12611;44.446;26.000;2024-02-15T00:41:17;10.30;75.90
24426;DHT22;12611;44.446;26.000;2024-02-15T00:43:47;10.20;76.00
24426;DHT22;12611;44.446;26.000;2024-02-15T00:46:17;10.20;76.10
24426;DHT22;12611;44.446;26.000;2024-02-15T00:48:45;10.20;76.10
24426;DHT22;12611;44.446;26.000;2024-02-15T00:51:14;10.10;76.30
24426;DHT22;12611;44.446;26.000;2024-02-15T00:53:43;10.10;76.40
24426;DHT22;12611;44.446;26.000;2024-02-15T00:56:13;10.10;76.40
24426;DHT22;12611;44.446;26.000;2024-02-15T00:58:42;10.00;76.40
24426;DHT22;12611;44.446;26.000;2024-02-15T01:01:10;10.00;76.40
24426;DHT22;12611;44.446;26.000;2024-02-15T01:03:39;9.90;76.50
24426;DHT22;12611;44.446;26.000;2024-02-15T01:06:08;9.90;76.60
24426;DHT22;12611;44.446;26.000;2024-02-15T01:08:36;9.90;76.60
24426;DHT22;12611;44.446;26.000;2024-02-15T01:11:06;9.90;76.70
24426;DHT22;12611;44.446;26.000;2024-02-15T01:13:36;9.80;76.80
24426;DHT22;12611;44.446;26.000;2024-02-15T01:16:05;9.80;76.90
24426;DHT22;12611;44.446;26.000;2024-02-15T01:18:34;9.80;77.00
24426;DHT22;12611;44.446;26.000;2024-02-15T01:21:03;9.80;77.00
24426;DHT22;12611;44.446;26.000;2024-02-15T01:23:32;9.80;77.00
24426;DHT22;12611;44.446;26.000;2024-02-15T01:26:04;9.80;77.20
24426;DHT22;12611;44.446;26.000;2024-02-15T01:28:33;9.80;77.30
24426;DHT22;12611;44.446;26.000;2024-02-15T01:31:03;9.80;77.40
24426;DHT22;12611;44.446;26.000;2024-02-15T01:33:33;9.80;77.50
24426;DHT22;12611;44.446;26.000;2024-02-15T01:36:04;9.80;77.70
24426;DHT22;12611;44.446;26.000;2024-02-15T01:38:33;9.80;77.70
24426;DHT22;12611;44.446;26.000;2024-02-15T01:41:01;9.80;77.80
24426;DHT22;12611;44.446;26.000;2024-02-15T01:43:30;9.80;77.90
24426;DHT22;12611;44.446;26.000;2024-02-15T01:45:59;9.80;78.00
24426;DHT22;12611;44.446;26.000;2024-02-15T01:48:32;9.70;78.00
24426;DHT22;12611;44.446;26.000;2024-02-15T01:51:01;9.80;78.10
24426;DHT22;12611;44.446;26.000;2024-02-15T01:53:31;9.70;78.10
24426;DHT22;12611;44.446;26.000;2024-02-15T01:55:59;9.70;78.20
24426;DHT22;12611;44.446;26.000;2024-02-15T01:58:29;9.70;78.30
24426;DHT22;12611;44.446;26.000;2024-02-15T02:01:00;9.70;78.30
24426;DHT22;12611;44.446;26.000;2024-02-15T02:03:30;9.70;78.40
24426;DHT22;12611;44.446;26.000;2024-02-15T02:06:00;9.70;78.40
24426;DHT22;12611;44.446;26.000;2024-02-15T02:08:30;9.70;78.50
24426;DHT22;12611;44.446;26.000;2024-02-15T02:10:59;9.70;78.50
24426;DHT22;12611;44.446;26.000;2024-02-15T02:13:28;9.70;78.50
24426;DHT22;12611;44.446;26.000;2024-02-15T02:15:57;9.70;78.60
24426;DHT22;12611;44.446;26.000;2024-02-15T02:18:27;9.70;78.70
24426;DHT22;12611;44.446;26.000;2024-02-15T02:20:57;9.70;78.70
24426;DHT22;12611;44.446;26.000;2024-02-15T02:23:26;9.70;78.70
24426;DHT22;12611;44.446;26.000;2024-02-15T02:26:00;9.70;78.70
24426;DHT22;12611;44.446;26.000;2024-02-15T02:28:29;9.70;78.70
24426;DHT22;12611;44.446;26.000;2024-02-15T02:30:57;9.70;78.70
24426;DHT22;12611;44.446;26.000;2024-02-15T02:33:26;9.70;78.60
24426;DHT22;12611;44.446;26.000;2024-02-15T02:35:56;9.70;78.70
24426;DHT22;12611;44.446;26.000;2024-02-15T02:38:25;9.70;78.80
24426;DHT22;12611;44.446;26.000;2024-02-15T02:40:55;9.70;78.80
24426;DHT22;12611;44.446;26.000;2024-02-15T02:43:25;9.70;78.80
24426;DHT22;12611;44.446;26.000;2024-02-15T02:45:53;9.70;78.70
24426;DHT22;12611;44.446;26.000;2024-02-15T02:48:22;9.70;78.60
24426;DHT22;12611;44.446;26.000;2024-02-15T02:50:52;9.70;78.60
24426;DHT22;12611;44.446;26.000;2024-02-15T02:53:20;9.70;78.60
24426;DHT22;12611;44.446;26.000;2024-02-15T02:55:49;9.70;78.60
24426;DHT22;12611;44.446;26.000;2024-02-15T02:58:18;9.70;78.60
24426;DHT22;12611;44.446;26.000;2024-02-15T03:00:48;9.60;78.60
24426;DHT22;12611;44.446;26.000;2024-02-15T03:03:17;9.60;78.60
24426;DHT22;12611;44.446;26.000;2024-02-15T03:05:46;9.60;78.60
24426;DHT22;12611;44.446;26.000;2024-02-15T03:08:15;9.60;78.60
24426;DHT22;12611;44.446;26.000;2024-02-15T03:10:44;9.60;78.50
24426;DHT22;12611;44.446;26.000;2024-02-15T03:13:13;9.60;78.60
24426;DHT22;12611;44.446;26.000;2024-02-15T03:15:42;9.60;78.60
24426;DHT22;12611;44.446;26.000;2024-02-15T03:18:12;9.60;78.50
24426;DHT22;12611;44.446;26.000;2024-02-15T03:20:42;9.50;78.50
24426;DHT22;12611;44.446;26.000;2024-02-15T03:23:11;9.60;78.60
24426;DHT22;12611;44.446;26.000;2024-02-15T03:25:39;9.60;78.60
24426;DHT22;12611;44.446;26.000;2024-02-15T03:28:08;9.50;78.40
24426;DHT22;12611;44.446;26.000;2024-02-15T03:30:37;9.50;78.50
24426;DHT22;12611;44.446;26.000;2024-02-15T03:33:05;9.50;78.40
24426;DHT22;12611;44.446;26.000;2024-02-15T03:35:35;9.50;78.50
24426;DHT22;12611;44.446;26.000;2024-02-15T03:38:05;9.50;78.40
24426;DHT22;12611;44.446;26.000;2024-02-15T03:40:34;9.50;78.30
24426;DHT22;12611;44.446;26.000;2024-02-15T03:43:04;9.40;78.30
24426;DHT22;12611;44.446;26.000;2024-02-15T03:45:34;9.40;78.30
24426;DHT22;12611;44.446;26.000;2024-02-15T03:48:03;9.40;78.30
24426;DHT22;12611;44.446;26.000;2024-02-15T03:50:32;9.40;78.40
24426;DHT22;12611;44.446;26.000;2024-02-15T03:53:03;9.30;78.30
24426;DHT22;12611;44.446;26.000;2024-02-15T03:55:34;9.30;78.30
24426;DHT22;12611;44.446;26.000;2024-02-15T03:58:03;9.30;78.30
24426;DHT22;12611;44.446;26.000;2024-02-15T04:00:32;9.30;78.30
24426;DHT22;12611;44.446;26.000;2024-02-15T04:03:00;9.20;78.50
24426;DHT22;12611;44.446;26.000;2024-02-15T04:05:29;9.20;78.70
24426;DHT22;12611;44.446;26.000;2024-02-15T04:07:58;9.10;78.60
24426;DHT22;12611;44.446;26.000;2024-02-15T04:10:31;9.10;78.80
24426;DHT22;12611;44.446;26.000;2024-02-15T04:12:59;9.10;79.10
24426;DHT22;12611;44.446;26.000;2024-02-15T04:15:28;9.00;79.00
24426;DHT22;12611;44.446;26.000;2024-02-15T04:17:57;9.00;79.00
24426;DHT22;12611;44.446;26.000;2024-02-15T04:20:27;9.00;79.00
24426;DHT22;12611;44.446;26.000;2024-02-15T04:22:56;8.90;79.10
24426;DHT22;12611;44.446;26.000;2024-02-15T04:25:26;8.90;79.20
24426;DHT22;12611;44.446;26.000;2024-02-15T04:27:57;8.90;79.20
24426;DHT22;12611;44.446;26.000;2024-02-15T04:30:31;8.90;79.50
24426;DHT22;12611;44.446;26.000;2024-02-15T04:33:02;8.90;79.80
24426;DHT22;12611;44.446;26.000;2024-02-15T04:35:31;8.80;80.20
24426;DHT22;12611;44.446;26.000;2024-02-15T04:38:00;8.80;80.40
24426;DHT22;12611;44.446;26.000;2024-02-15T04:40:31;8.80;80.60
24426;DHT22;12611;44.446;26.000;2024-02-15T04:43:02;8.80;80.70
24426;DHT22;12611;44.446;26.000;2024-02-15T04:45:31;8.80;80.70
24426;DHT22;12611;44.446;26.000;2024-02-15T04:48:00;8.70;80.70
24426;DHT22;12611;44.446;26.000;2024-02-15T04:50:30;8.70;80.70
24426;DHT22;12611;44.446;26.000;2024-02-15T04:52:58;8.70;80.70
24426;DHT22;12611;44.446;26.000;2024-02-15T04:55:27;8.70;80.80
24426;DHT22;12611;44.446;26.000;2024-02-15T04:57:59;8.70;80.80
24426;DHT22;12611;44.446;26.000;2024-02-15T05:00:28;8.60;80.80
24426;DHT22;12611;44.446;26.000;2024-02-15T05:02:57;8.60;80.80
24426;DHT22;12611;44.446;26.000;2024-02-15T05:05:39;8.60;80.70
24426;DHT22;12611;44.446;26.000;2024-02-15T05:08:08;8.70;80.90
24426;DHT22;12611;44.446;26.000;2024-02-15T05:10:36;8.60;80.70
24426;DHT22;12611;44.446;26.000;2024-02-15T05:13:35;8.70;80.90
24426;DHT22;12611;44.446;26.000;2024-02-15T05:16:04;8.60;80.80
24426;DHT22;12611;44.446;26.000;2024-02-15T05:18:34;8.60;80.80
24426;DHT22;12611;44.446;26.000;2024-02-15T05:21:04;8.60;80.80
24426;DHT22;12611;44.446;26.000;2024-02-15T05:23:37;8.60;81.00
24426;DHT22;12611;44.446;26.000;2024-02-15T05:26:07;8.60;81.10
24426;DHT22;12611;44.446;26.000;2024-02-15T05:28:37;8.50;81.10
24426;DHT22;12611;44.446;26.000;2024-02-15T05:31:12;8.60;81.40
24426;DHT22;12611;44.446;26.000;2024-02-15T05:33:44;8.50;81.30
24426;DHT22;12611;44.446;26.000;2024-02-15T05:36:15;8.50;81.40
24426;DHT22;12611;44.446;26.000;2024-02-15T05:38:48;8.60;81.40
24426;DHT22;12611;44.446;26.000;2024-02-15T05:41:16;8.60;81.30
24426;DHT22;12611;44.446;26.000;2024-02-15T05:43:48;8.60;81.10
24426;DHT22;12611;44.446;26.000;2024-02-15T05:46:16;8.60;81.10
24426;DHT22;12611;44.446;26.000;2024-02-15T05:48:45;8.70;81.10
24426;DHT22;12611;44.446;26.000;2024-02-15T05:51:14;8.60;81.40
24426;DHT22;12611;44.446;26.000;2024-02-15T05:53:43;8.60;81.40
24426;DHT22;12611;44.446;26.000;2024-02-15T05:56:12;8.60;81.40
24426;DHT22;12611;44.446;26.000;2024-02-15T05:58:41;8.60;81.40
24426;DHT22;12611;44.446;26.000;2024-02-15T06:01:11;8.60;81.70
24426;DHT22;12611;44.446;26.000;2024-02-15T06:03:41;8.60;81.80
24426;DHT22;12611;44.446;26.000;2024-02-15T06:06:11;8.60;81.90
24426;DHT22;12611;44.446;26.000;2024-02-15T06:08:40;8.60;82.00
24426;DHT22;12611;44.446;26.000;2024-02-15T06:11:09;8.60;82.30
24426;DHT22;12611;44.446;26.000;2024-02-15T06:13:37;8.60;82.30
24426;DHT22;12611;44.446;26.000;2024-02-15T06:16:06;8.60;82.50
24426;DHT22;12611;44.446;26.000;2024-02-15T06:18:38;8.60;82.70
24426;DHT22;12611;44.446;26.000;2024-02-15T06:21:07;8.60;82.60
24426;DHT22;12611;44.446;26.000;2024-02-15T06:23:36;8.60;82.60
24426;DHT22;12611;44.446;26.000;2024-02-15T06:26:04;8.70;82.80
24426;DHT22;12611;44.446;26.000;2024-02-15T06:28:35;8.70;82.70
24426;DHT22;12611;44.446;26.000;2024-02-15T06:31:21;8.80;82.70
24426;DHT22;12611;44.446;26.000;2024-02-15T06:34:08;8.90;82.70
24426;DHT22;12611;44.446;26.000;2024-02-15T06:36:56;8.90;82.60
24426;DHT22;12611;44.446;26.000;2024-02-15T06:39:42;9.00;82.60
24426;DHT22;12611;44.446;26.000;2024-02-15T06:42:13;9.10;82.50
24426;DHT22;12611;44.446;26.000;2024-02-15T06:44:44;9.10;82.10
24426;DHT22;12611;44.446;26.000;2024-02-15T06:47:13;9.10;82.10
24426;DHT22;12611;44.446;26.000;2024-02-15T06:49:47;9.10;81.90
24426;DHT22;12611;44.446;26.000;2024-02-15T06:52:19;9.00;81.80
24426;DHT22;12611;44.446;26.000;2024-02-15T06:54:48;9.10;82.00
24426;DHT22;12611;44.446;26.000;2024-02-15T06:57:18;9.20;82.10
24426;DHT22;12611;44.446;26.000;2024-02-15T06:59:47;9.20;82.10
24426;DHT22;12611;44.446;26.000;2024-02-15T07:02:16;9.20;81.90
24426;DHT22;12611;44.446;26.000;2024-02-15T07:04:44;9.20;81.70
24426;DHT22;12611;44.446;26.000;2024-02-15T07:07:15;9.30;81.80
24426;DHT22;12611;44.446;26.000;2024-02-15T07:09:44;9.40;81.90
24426;DHT22;12611;44.446;26.000;2024-02-15T07:12:13;9.40;81.80
24426;DHT22;12611;44.446;26.000;2024-02-15T07:14:42;9.50;81.60
24426;DHT22;12611;44.446;26.000;2024-02-15T07:17:11;9.60;81.50
24426;DHT22;12611;44.446;26.000;2024-02-15T07:19:42;9.70;81.50
24426;DHT22;12611;44.446;26.000;2024-02-15T07:22:14;9.80;81.30
24426;DHT22;12611;44.446;26.000;2024-02-15T07:24:43;9.80;81.10
24426;DHT22;12611;44.446;26.000;2024-02-15T07:27:11;9.90;80.80
24426;DHT22;12611;44.446;26.000;2024-02-15T07:29:40;10.00;80.80
24426;DHT22;12611;44.446;26.000;2024-02-15T07:32:09;10.10;80.70
24426;DHT22;12611;44.446;26.000;2024-02-15T07:34:39;10.10;80.50
24426;DHT22;12611;44.446;26.000;2024-02-15T07:37:09;10.30;80.50
24426;DHT22;12611;44.446;26.000;2024-02-15T07:39:41;10.30;80.40
24426;DHT22;12611;44.446;26.000;2024-02-15T07:42:09;10.40;80.10
24426;DHT22;12611;44.446;26.000;2024-02-15T07:44:39;10.50;79.90
24426;DHT22;12611;44.446;26.000;2024-02-15T07:47:10;10.50;79.70
24426;DHT22;12611;44.446;26.000;2024-02-15T07:49:38;10.60;79.50
24426;DHT22;12611;44.446;26.000;2024-02-15T07:52:07;10.70;79.40
24426;DHT22;12611;44.446;26.000;2024-02-15T07:54:36;10.60;78.50
24426;DHT22;12611;44.446;26.000;2024-02-15T07:57:07;10.60;77.40
24426;DHT22;12611;44.446;26.000;2024-02-15T07:59:36;10.60;77.30
24426;DHT22;12611;44.446;26.000;2024-02-15T08:02:06;10.60;77.20
24426;DHT22;12611;44.446;26.000;2024-02-15T08:04:35;10.60;76.90
24426;DHT22;12611;44.446;26.000;2024-02-15T08:07:08;10.70;77.60
24426;DHT22;12611;44.446;26.000;2024-02-15T08:09:39;10.70;77.70
24426;DHT22;12611;44.446;26.000;2024-02-15T08:12:11;10.80;78.10
24426;DHT22;12611;44.446;26.000;2024-02-15T08:14:40;10.80;77.40
24426;DHT22;12611;44.446;26.000;2024-02-15T08:17:10;10.90;77.10
24426;DHT22;12611;44.446;26.000;2024-02-15T08:19:40;10.90;77.10
24426;DHT22;12611;44.446;26.000;2024-02-15T08:22:13;10.90;75.90
24426;DHT22;12611;44.446;26.000;2024-02-15T08:24:42;11.00;76.60
24426;DHT22;12611;44.446;26.000;2024-02-15T08:27:12;11.00;76.10
24426;DHT22;12611;44.446;26.000;2024-02-15T08:29:43;11.00;75.80
24426;DHT22;12611;44.446;26.000;2024-02-15T08:32:12;11.10;76.30
24426;DHT22;12611;44.446;26.000;2024-02-15T08:34:41;11.10;75.90
24426;DHT22;12611;44.446;26.000;2024-02-15T08:37:10;11.10;75.90
24426;DHT22;12611;44.446;26.000;2024-02-15T08:39:39;11.20;75.90
24426;DHT22;12611;44.446;26.000;2024-02-15T08:42:07;11.20;76.00
24426;DHT22;12611;44.446;26.000;2024-02-15T08:44:37;11.30;76.10
24426;DHT22;12611;44.446;26.000;2024-02-15T08:47:06;11.30;75.60
24426;DHT22;12611;44.446;26.000;2024-02-15T08:49:35;11.40;75.40
24426;DHT22;12611;44.446;26.000;2024-02-15T08:52:05;11.50;75.40
24426;DHT22;12611;44.446;26.000;2024-02-15T08:54:35;11.50;74.40
24426;DHT22;12611;44.446;26.000;2024-02-15T08:57:06;11.50;74.10
24426;DHT22;12611;44.446;26.000;2024-02-15T08:59:35;11.60;74.00
24426;DHT22;12611;44.446;26.000;2024-02-15T09:02:05;11.60;73.40
24426;DHT22;12611;44.446;26.000;2024-02-15T09:04:33;11.60;72.70
24426;DHT22;12611;44.446;26.000;2024-02-15T09:07:02;11.70;72.90
24426;DHT22;12611;44.446;26.000;2024-02-15T09:09:31;11.70;73.00
24426;DHT22;12611;44.446;26.000;2024-02-15T09:12:01;11.80;73.60
24426;DHT22;12611;44.446;26.000;2024-02-15T09:14:33;11.80;71.70
24426;DHT22;12611;44.446;26.000;2024-02-15T09:17:01;11.70;71.70
24426;DHT22;12611;44.446;26.000;2024-02-15T09:19:36;11.90;72.50
24426;DHT22;12611;44.446;26.000;2024-02-15T09:22:05;11.90;72.60
24426;DHT22;12611;44.446;26.000;2024-02-15T09:24:33;11.90;72.20
24426;DHT22;12611;44.446;26.000;2024-02-15T09:27:02;12.00;72.40
24426;DHT22;12611;44.446;26.000;2024-02-15T09:29:31;12.20;72.90
24426;DHT22;12611;44.446;26.000;2024-02-15T09:32:00;12.20;70.90
24426;DHT22;12611;44.446;26.000;2024-02-15T09:34:30;12.30;70.70
24426;DHT22;12611;44.446;26.000;2024-02-15T09:37:01;12.30;70.80
24426;DHT22;12611;44.446;26.000;2024-02-15T09:39:30;12.40;70.80
24426;DHT22;12611;44.446;26.000;2024-02-15T09:41:59;12.60;71.30
24426;DHT22;12611;44.446;26.000;2024-02-15T09:44:28;12.70;70.70
24426;DHT22;12611;44.446;26.000;2024-02-15T09:47:02;12.90;71.30
24426;DHT22;12611;44.446;26.000;2024-02-15T09:49:35;12.90;69.50
24426;DHT22;12611;44.446;26.000;2024-02-15T09:52:09;13.00;69.70
24426;DHT22;12611;44.446;26.000;2024-02-15T09:54:40;13.00;67.90
24426;DHT22;12611;44.446;26.000;2024-02-15T09:57:10;13.00;68.10
24426;DHT22;12611;44.446;26.000;2024-02-15T09:59:44;13.00;68.50
24426;DHT22;12611;44.446;26.000;2024-02-15T10:02:13;13.10;69.00
24426;DHT22;12611;44.446;26.000;2024-02-15T10:04:56;13.10;68.40
24426;DHT22;12611;44.446;26.000;2024-02-15T10:07:40;13.10;67.80
24426;DHT22;12611;44.446;26.000;2024-02-15T10:10:24;13.20;68.10
24426;DHT22;12611;44.446;26.000;2024-02-15T10:13:12;13.30;68.30
24426;DHT22;12611;44.446;26.000;2024-02-15T10:15:42;13.40;68.30
24426;DHT22;12611;44.446;26.000;2024-02-15T10:18:12;13.40;66.90
24426;DHT22;12611;44.446;26.000;2024-02-15T10:20:58;13.40;67.10
24426;DHT22;12611;44.446;26.000;2024-02-15T10:23:41;13.40;67.10
24426;DHT22;12611;44.446;26.000;2024-02-15T10:26:21;13.40;67.10
24426;DHT22;12611;44.446;26.000;2024-02-15T10:29:05;13.50;67.20
24426;DHT22;12611;44.446;26.000;2024-02-15T10:31:37;13.50;67.70
24426;DHT22;12611;44.446;26.000;2024-02-15T10:34:07;13.60;67.70
24426;DHT22;12611;44.446;26.000;2024-02-15T10:36:36;13.70;67.80
24426;DHT22;12611;44.446;26.000;2024-02-15T10:39:13;13.70;67.60
24426;DHT22;12611;44.446;26.000;2024-02-15T10:41:58;13.70;66.90
24426;DHT22;12611;44.446;26.000;2024-02-15T10:44:26;13.70;66.00
24426;DHT22;12611;44.446;26.000;2024-02-15T10:46:55;13.70;66.30
24426;DHT22;12611;44.446;26.000;2024-02-15T10:49:24;13.80;66.40
24426;DHT22;12611;44.446;26.000;2024-02-15T10:51:56;13.70;65.40
24426;DHT22;12611;44.446;26.000;2024-02-15T10:54:41;13.80;66.00
24426;DHT22;12611;44.446;26.000;2024-02-15T10:57:11;13.90;65.50
24426;DHT22;12611;44.446;26.000;2024-02-15T10:59:51;13.90;65.50
24426;DHT22;12611;44.446;26.000;2024-02-15T11:02:27;14.00;65.80
24426;DHT22;12611;44.446;26.000;2024-02-15T11:05:02;14.10;65.70
24426;DHT22;12611;44.446;26.000;2024-02-15T11:07:33;14.20;65.50
24426;DHT22;12611;44.446;26.000;2024-02-15T11:10:05;14.30;65.50
24426;DHT22;12611;44.446;26.000;2024-02-15T11:12:50;14.30;65.10
24426;DHT22;12611;44.446;26.000;2024-02-15T11:15:41;14.40;65.20
24426;DHT22;12611;44.446;26.000;2024-02-15T11:18:12;14.50;65.30
24426;DHT22;12611;44.446;26.000;2024-02-15T11:20:50;14.50;64.90
24426;DHT22;12611;44.446;26.000;2024-02-15T11:23:27;14.60;64.80
24426;DHT22;12611;44.446;26.000;2024-02-15T11:26:00;14.60;64.40
24426;DHT22;12611;44.446;26.000;2024-02-15T11:28:39;14.70;64.30
24426;DHT22;12611;44.446;26.000;2024-02-15T11:31:09;14.80;64.70
24426;DHT22;12611;44.446;26.000;2024-02-15T11:33:42;14.80;63.80
24426;DHT22;12611;44.446;26.000;2024-02-15T11:36:12;14.90;64.10
24426;DHT22;12611;44.446;26.000;2024-02-15T11:39:41;15.00;63.70
24426;DHT22;12611;44.446;26.000;2024-02-15T11:42:29;15.10;64.10
24426;DHT22;12611;44.446;26.000;2024-02-15T11:45:07;15.10;62.90
24426;DHT22;12611;44.446;26.000;2024-02-15T11:47:56;15.20;63.10
24426;DHT22;12611;44.446;26.000;2024-02-15T11:50:27;15.30;63.30
24426;DHT22;12611;44.446;26.000;2024-02-15T11:53:02;15.40;62.90
24426;DHT22;12611;44.446;26.000;2024-02-15T11:56:00;15.50;62.70
24426;DHT22;12611;44.446;26.000;2024-02-15T11:58:31;15.60;62.20
24426;DHT22;12611;44.446;26.000;2024-02-15T12:01:13;15.60;61.00
24426;DHT22;12611;44.446;26.000;2024-02-15T12:03:59;15.70;61.20
24426;DHT22;12611;44.446;26.000;2024-02-15T12:06:45;15.80;60.80
24426;DHT22;12611;44.446;26.000;2024-02-15T12:09:31;15.90;60.50
24426;DHT22;12611;44.446;26.000;2024-02-15T12:12:17;16.00;60.80
24426;DHT22;12611;44.446;26.000;2024-02-15T12:15:05;16.10;61.30
24426;DHT22;12611;44.446;26.000;2024-02-15T12:17:51;16.20;60.70
24426;DHT22;12611;44.446;26.000;2024-02-15T12:20:37;16.20;59.10
24426;DHT22;12611;44.446;26.000;2024-02-15T12:23:09;16.30;59.70
24426;DHT22;12611;44.446;26.000;2024-02-15T12:25:38;16.40;59.40
24426;DHT22;12611;44.446;26.000;2024-02-15T12:28:07;16.40;59.10
24426;DHT22;12611;44.446;26.000;2024-02-15T12:30:37;16.50;59.40
24426;DHT22;12611;44.446;26.000;2024-02-15T12:33:12;16.50;59.20
24426;DHT22;12611;44.446;26.000;2024-02-15T12:36:24;16.60;59.20
24426;DHT22;12611;44.446;26.000;2024-02-15T12:38:59;16.70;59.40
24426;DHT22;12611;44.446;26.000;2024-02-15T12:41:29;16.80;59.20
24426;DHT22;12611;44.446;26.000;2024-02-15T12:44:32;16.80;59.30
24426;DHT22;12611;44.446;26.000;2024-02-15T12:47:20;16.90;58.40
24426;DHT22;12611;44.446;26.000;2024-02-15T12:50:36;16.80;57.70
24426;DHT22;12611;44.446;26.000;2024-02-15T12:53:22;16.90;57.70
24426;DHT22;12611;44.446;26.000;2024-02-15T12:55:54;16.90;57.80
24426;DHT22;12611;44.446;26.000;2024-02-15T12:58:24;16.90;58.00
24426;DHT22;12611;44.446;26.000;2024-02-15T13:00:55;16.90;57.70
24426;DHT22;12611;44.446;26.000;2024-02-15T13:03:47;17.00;57.80
24426;DHT22;12611;44.446;26.000;2024-02-15T13:06:15;17.00;58.10
24426;DHT22;12611;44.446;26.000;2024-02-15T13:08:46;17.10;58.20
24426;DHT22;12611;44.446;26.000;2024-02-15T13:11:16;17.20;58.30
24426;DHT22;12611;44.446;26.000;2024-02-15T13:13:58;17.20;57.00
24426;DHT22;12611;44.446;26.000;2024-02-15T13:16:27;17.20;57.40
24426;DHT22;12611;44.446;26.000;2024-02-15T13:18:59;17.10;57.20
24426;DHT22;12611;44.446;26.000;2024-02-15T13:21:28;17.20;57.50
24426;DHT22;12611;44.446;26.000;2024-02-15T13:24:24;17.20;57.80
24426;DHT22;12611;44.446;26.000;2024-02-15T13:26:53;17.20;57.70
24426;DHT22;12611;44.446;26.000;2024-02-15T13:29:26;17.10;57.10
24426;DHT22;12611;44.446;26.000;2024-02-15T13:32:08;17.10;57.00
24426;DHT22;12611;44.446;26.000;2024-02-15T13:34:40;17.00;56.30
24426;DHT22;12611;44.446;26.000;2024-02-15T13:37:23;17.00;56.50
24426;DHT22;12611;44.446;26.000;2024-02-15T13:39:52;17.00;56.50
24426;DHT22;12611;44.446;26.000;2024-02-15T13:42:20;17.00;56.80
24426;DHT22;12611;44.446;26.000;2024-02-15T13:44:49;17.00;57.00
24426;DHT22;12611;44.446;26.000;2024-02-15T13:47:17;17.00;57.30
24426;DHT22;12611;44.446;26.000;2024-02-15T13:49:49;17.00;57.20
24426;DHT22;12611;44.446;26.000;2024-02-15T13:52:18;17.00;57.30
24426;DHT22;12611;44.446;26.000;2024-02-15T13:54:49;17.00;56.70
24426;DHT22;12611;44.446;26.000;2024-02-15T13:57:17;17.00;57.10
24426;DHT22;12611;44.446;26.000;2024-02-15T14:00:00;16.90;56.90
24426;DHT22;12611;44.446;26.000;2024-02-15T14:02:29;16.90;57.20
24426;DHT22;12611;44.446;26.000;2024-02-15T14:05:12;16.90;57.30
24426;DHT22;12611;44.446;26.000;2024-02-15T14:07:41;16.90;57.30
24426;DHT22;12611;44.446;26.000;2024-02-15T14:10:24;16.90;57.60
24426;DHT22;12611;44.446;26.000;2024-02-15T14:12:54;16.90;57.70
24426;DHT22;12611;44.446;26.000;2024-02-15T14:15:37;16.90;57.30
24426;DHT22;12611;44.446;26.000;2024-02-15T14:18:09;16.90;57.10
24426;DHT22;12611;44.446;26.000;2024-02-15T14:20:43;16.90;57.20
24426;DHT22;12611;44.446;26.000;2024-02-15T14:23:15;16.80;57.20
24426;DHT22;12611;44.446;26.000;2024-02-15T14:25:44;16.80;57.50
24426;DHT22;12611;44.446;26.000;2024-02-15T14:28:13;16.80;57.60
24426;DHT22;12611;44.446;26.000;2024-02-15T14:30:43;16.80;57.60
24426;DHT22;12611;44.446;26.000;2024-02-15T14:33:29;16.70;57.70
24426;DHT22;12611;44.446;26.000;2024-02-15T14:36:02;16.70;57.80
24426;DHT22;12611;44.446;26.000;2024-02-15T14:38:34;16.70;58.00
24426;DHT22;12611;44.446;26.000;2024-02-15T14:41:03;16.60;57.90
24426;DHT22;12611;44.446;26.000;2024-02-15T14:43:59;16.60;58.10
24426;DHT22;12611;44.446;26.000;2024-02-15T14:46:28;16.60;58.00
24426;DHT22;12611;44.446;26.000;2024-02-15T14:48:56;16.50;58.00
24426;DHT22;12611;44.446;26.000;2024-02-15T14:51:27;16.50;58.10
24426;DHT22;12611;44.446;26.000;2024-02-15T14:53:56;16.50;58.20
24426;DHT22;12611;44.446;26.000;2024-02-15T14:56:25;16.50;58.20
24426;DHT22;12611;44.446;26.000;2024-02-15T14:58:54;16.40;58.30
24426;DHT22;12611;44.446;26.000;2024-02-15T15:01:23;16.40;58.10
24426;DHT22;12611;44.446;26.000;2024-02-15T15:03:56;16.40;58.30
24426;DHT22;12611;44.446;26.000;2024-02-15T15:06:41;16.30;58.40
24426;DHT22;12611;44.446;26.000;2024-02-15T15:09:39;16.30;58.10
24426;DHT22;12611;44.446;26.000;2024-02-15T15:12:40;16.20;58.20
24426;DHT22;12611;44.446;26.000;2024-02-15T15:15:12;16.20;58.20
24426;DHT22;12611;44.446;26.000;2024-02-15T15:17:55;16.20;58.40
24426;DHT22;12611;44.446;26.000;2024-02-15T15:20:38;16.20;58.20
24426;DHT22;12611;44.446;26.000;2024-02-15T15:23:22;16.10;58.20
24426;DHT22;12611;44.446;26.000;2024-02-15T15:25:50;16.10;58.30
24426;DHT22;12611;44.446;26.000;2024-02-15T15:28:33;16.00;58.10
24426;DHT22;12611;44.446;26.000;2024-02-15T15:31:02;15.90;57.90
24426;DHT22;12611;44.446;26.000;2024-02-15T15:33:32;15.90;57.70
24426;DHT22;12611;44.446;26.000;2024-02-15T15:36:01;15.80;57.60
24426;DHT22;12611;44.446;26.000;2024-02-15T15:38:45;15.70;57.80
24426;DHT22;12611;44.446;26.000;2024-02-15T15:41:14;15.70;58.10
24426;DHT22;12611;44.446;26.000;2024-02-15T15:43:44;15.70;58.40
24426;DHT22;12611;44.446;26.000;2024-02-15T15:46:13;15.60;58.50
24426;DHT22;12611;44.446;26.000;2024-02-15T15:48:42;15.60;58.50
24426;DHT22;12611;44.446;26.000;2024-02-15T15:51:25;15.60;58.50
24426;DHT22;12611;44.446;26.000;2024-02-15T15:54:09;15.50;58.60
24426;DHT22;12611;44.446;26.000;2024-02-15T15:56:51;15.50;58.40